Time;durP1;ratioP1;P1;durP2;ratioP2;P2;SDS_P1;SDS_P2;PMS_P1;PMS_P2;Temp;Humidity;BMP_temperature;BMP_pressure;BME280_temperature;BME280_humidity;BME280_pressure;Samples;Min_cycle;Max_cycle;Signal;HPM_P1;HPM_P2
2022/03/09 00:01:37;;;;;;;4.13;3.00;;;18.60;30.80;;;;;;5074730;28;20496;-49
2022/03/09 00:04:03;;;;;;;5.55;2.88;;;18.60;30.80;;;;;;5092840;28;20056;-48
2022/03/09 00:06:29;;;;;;;6.28;3.20;;;18.60;30.80;;;;;;5074780;28;20047;-48
2022/03/09 00:08:55;;;;;;;4.28;3.08;;;18.60;30.80;;;;;;5092779;28;20391;-48
2022/03/09 00:11:22;;;;;;;3.05;2.60;;;18.60;30.90;;;;;;5092981;28;20027;-48
2022/03/09 00:13:48;;;;;;;4.55;3.38;;;18.60;30.90;;;;;;5041482;28;20115;-50
2022/03/09 00:16:13;;;;;;;5.15;3.20;;;18.60;30.90;;;;;;5074463;28;20034;-48
2022/03/09 00:18:39;;;;;;;5.53;3.03;;;18.60;30.90;;;;;;5074593;28;20490;-51
2022/03/09 00:21:05;;;;;;;5.00;3.38;;;18.50;30.90;;;;;;5093073;28;20485;-48
2022/03/09 00:23:31;;;;;;;3.80;2.95;;;18.50;30.90;;;;;;5093106;28;20020;-50
2022/03/09 00:25:57;;;;;;;4.18;3.42;;;18.50;31.00;;;;;;5092531;28;20545;-48
2022/03/09 00:28:22;;;;;;;5.45;3.25;;;18.50;31.00;;;;;;5092679;28;20588;-48
2022/03/09 00:30:48;;;;;;;4.00;3.22;;;18.50;31.00;;;;;;5092414;28;20019;-52
2022/03/09 00:33:14;;;;;;;4.53;3.70;;;18.50;31.00;;;;;;5074601;28;20581;-53
2022/03/09 00:35:40;;;;;;;5.53;3.38;;;18.50;31.10;;;;;;5092814;28;20486;-52
2022/03/09 00:38:06;;;;;;;5.32;3.33;;;18.50;31.60;;;;;;5076356;28;20109;-51
2022/03/09 00:40:33;;;;;;;3.85;3.20;;;18.50;31.60;;;;;;5094393;28;20028;-49
2022/03/09 00:42:59;;;;;;;3.92;3.47;;;18.50;31.10;;;;;;5093583;28;20020;-50
2022/03/09 00:45:25;;;;;;;4.97;3.60;;;18.50;31.10;;;;;;5074612;28;20078;-50
2022/03/09 00:47:51;;;;;;;5.07;3.47;;;18.40;31.00;;;;;;5092476;28;20463;-49
2022/03/09 00:50:17;;;;;;;4.10;3.30;;;18.50;31.10;;;;;;5092517;28;20459;-55
2022/03/09 00:52:43;;;;;;;6.32;3.75;;;18.50;31.10;;;;;;5094427;28;20474;-54
2022/03/09 00:55:10;;;;;;;4.57;3.55;;;18.50;31.10;;;;;;5077730;28;20020;-55
2022/03/09 00:57:36;;;;;;;3.70;2.97;;;18.40;31.10;;;;;;5078101;28;20091;-56
2022/03/09 01:00:03;;;;;;;4.68;3.20;;;18.40;31.20;;;;;;5095690;28;20106;-56
2022/03/09 01:02:28;;;;;;;4.78;3.35;;;18.40;31.20;;;;;;5095917;28;20012;-56
2022/03/09 01:04:54;;;;;;;4.13;3.55;;;18.40;31.10;;;;;;5095697;28;20471;-56
2022/03/09 01:07:21;;;;;;;3.83;3.35;;;18.40;31.20;;;;;;5095947;28;20060;-56
2022/03/09 01:09:47;;;;;;;4.93;3.20;;;18.40;31.20;;;;;;5095786;28;20011;-56
2022/03/09 01:12:13;;;;;;;5.45;3.63;;;18.40;31.20;;;;;;5095424;28;20083;-56
2022/03/09 01:14:39;;;;;;;3.90;3.47;;;18.40;31.20;;;;;;5077319;28;20020;-55
2022/03/09 01:17:05;;;;;;;5.15;3.15;;;18.40;31.30;;;;;;5095635;28;20012;-55
2022/03/09 01:19:32;;;;;;;4.20;3.03;;;18.30;31.20;;;;;;5095111;28;20043;-56
2022/03/09 01:21:57;;;;;;;4.22;3.10;;;18.30;31.20;;;;;;5077250;28;20012;-55
2022/03/09 01:24:23;;;;;;;5.97;3.70;;;18.30;31.30;;;;;;5077088;28;20522;-54
2022/03/09 01:26:48;;;;;;;4.40;3.55;;;18.30;31.30;;;;;;5077048;28;20488;-54
2022/03/09 01:29:15;;;;;;;5.50;3.58;;;18.30;31.30;;;;;;5095023;28;20012;-56
2022/03/09 01:31:41;;;;;;;4.47;3.60;;;18.30;31.30;;;;;;5095130;28;20091;-55
2022/03/09 01:34:09;;;;;;;5.45;3.53;;;18.30;31.40;;;;;;5077353;28;20478;-56
2022/03/09 01:36:35;;;;;;;3.55;3.22;;;18.30;31.30;;;;;;5095234;28;20062;-54
2022/03/09 01:39:01;;;;;;;6.40;3.55;;;18.30;31.40;;;;;;5077284;28;20020;-56
2022/03/09 01:41:26;;;;;;;4.53;3.33;;;18.30;31.40;;;;;;5094930;28;20497;-55
2022/03/09 01:44:24;;;;;;;4.90;3.65;;;18.30;31.40;;;;;;5076807;28;20103;-54
2022/03/09 01:46:52;;;;;;;4.25;3.53;;;18.30;31.40;;;;;;5012709;28;20536;-55
2022/03/09 01:49:18;;;;;;;4.32;3.40;;;18.30;31.40;;;;;;5012759;28;20030;-55
2022/03/09 01:51:45;;;;;;;4.47;3.67;;;18.20;31.40;;;;;;5012796;28;20022;-55
2022/03/09 01:54:12;;;;;;;4.85;3.88;;;18.20;31.40;;;;;;5012613;28;20053;-56
2022/03/09 01:56:38;;;;;;;6.32;3.35;;;18.20;31.40;;;;;;5012571;28;20053;-56
2022/03/09 01:59:05;;;;;;;5.13;3.58;;;18.20;31.50;;;;;;5012426;28;20025;-57
2022/03/09 02:01:31;;;;;;;6.03;3.75;;;18.20;31.50;;;;;;5012530;28;20053;-56
2022/03/09 02:03:57;;;;;;;5.13;3.55;;;18.20;31.50;;;;;;4995789;28;20632;-56
2022/03/09 02:06:24;;;;;;;4.55;3.42;;;18.20;31.50;;;;;;5012324;28;20034;-55
2022/03/09 02:11:34;;;;;;;4.72;3.55;;;18.20;31.50;;;;;;5012313;28;20123;-55
2022/03/09 02:14:00;;;;;;;5.22;3.72;;;18.20;31.50;;;;;;4996065;28;20030;-54
2022/03/09 02:16:27;;;;;;;3.88;3.40;;;18.20;31.60;;;;;;5012203;28;20053;-56
2022/03/09 02:18:52;;;;;;;4.22;3.25;;;18.20;31.60;;;;;;5011958;28;20049;-55
2022/03/09 02:21:19;;;;;;;5.10;3.92;;;18.10;31.60;;;;;;5016171;28;20049;-60
2022/03/09 02:23:45;;;;;;;3.88;3.40;;;18.20;31.60;;;;;;5076166;28;20028;-55
2022/03/09 02:26:11;;;;;;;5.78;3.53;;;18.10;31.60;;;;;;5059207;28;20028;-56
2022/03/09 02:28:38;;;;;;;3.60;3.17;;;18.10;31.60;;;;;;5094342;28;20016;-56
2022/03/09 02:31:04;;;;;;;4.15;3.75;;;18.10;31.70;;;;;;5094332;28;20028;-55
2022/03/09 02:33:30;;;;;;;4.20;3.50;;;18.10;31.60;;;;;;5076353;28;20015;-56
2022/03/09 02:35:57;;;;;;;5.03;3.70;;;18.10;31.70;;;;;;5094214;28;20040;-55
2022/03/09 02:38:23;;;;;;;4.43;3.60;;;18.10;31.70;;;;;;5094190;28;20012;-55
2022/03/09 02:40:49;;;;;;;4.10;3.30;;;18.10;31.80;;;;;;5093811;28;20439;-55
2022/03/09 02:43:14;;;;;;;5.57;3.97;;;18.10;31.80;;;;;;5094050;28;20416;-56
2022/03/09 02:45:40;;;;;;;4.45;3.88;;;18.10;31.80;;;;;;5093785;28;20103;-55
2022/03/09 02:48:05;;;;;;;4.07;3.53;;;18.10;31.80;;;;;;5058875;28;20542;-53
2022/03/09 02:50:31;;;;;;;3.95;3.40;;;18.10;31.80;;;;;;5093928;28;20012;-54
2022/03/09 02:52:57;;;;;;;4.55;4.00;;;18.10;31.80;;;;;;5059410;28;20371;-51
2022/03/09 02:55:23;;;;;;;4.28;3.85;;;18.10;31.90;;;;;;5059182;28;20070;-57
2022/03/09 02:57:49;;;;;;;4.20;3.50;;;18.10;31.90;;;;;;5093735;28;20004;-54
2022/03/09 03:00:16;;;;;;;4.50;3.75;;;18.00;31.80;;;;;;5075407;28;20040;-56
2022/03/09 03:02:42;;;;;;;4.20;3.58;;;18.10;31.90;;;;;;5093841;28;20101;-55
2022/03/09 03:05:08;;;;;;;4.45;3.60;;;18.00;31.80;;;;;;5094362;28;20012;-55
2022/03/09 03:07:35;;;;;;;4.07;3.63;;;18.00;31.90;;;;;;5093900;28;20016;-55
2022/03/09 03:10:01;;;;;;;4.07;3.25;;;18.00;31.90;;;;;;5093487;28;20100;-57
2022/03/09 03:12:27;;;;;;;4.22;3.28;;;18.00;31.90;;;;;;5093238;28;20095;-54
2022/03/09 03:14:56;;;;;;;4.25;3.70;;;18.00;31.90;;;;;;5093765;28;20075;-55
2022/03/09 03:17:22;;;;;;;3.88;3.40;;;18.00;31.90;;;;;;5094004;28;20028;-57
2022/03/09 03:19:48;;;;;;;4.00;3.50;;;18.00;32.00;;;;;;5093170;28;20043;-57
2022/03/09 03:22:14;;;;;;;4.10;3.53;;;18.00;31.90;;;;;;5093733;28;20016;-54
2022/03/09 03:24:40;;;;;;;4.53;3.55;;;18.00;32.00;;;;;;5094295;28;20077;-53
2022/03/09 03:27:06;;;;;;;6.63;3.97;;;18.00;32.00;;;;;;5058901;28;20036;-54
2022/03/09 03:29:32;;;;;;;3.90;3.40;;;18.00;32.00;;;;;;5093621;28;20012;-54
2022/03/09 03:31:58;;;;;;;4.63;3.70;;;18.00;32.00;;;;;;5093470;28;20015;-54
2022/03/09 03:34:24;;;;;;;5.72;3.63;;;18.00;32.00;;;;;;5093552;28;20055;-53
2022/03/09 03:36:51;;;;;;;3.60;3.30;;;18.00;32.00;;;;;;5094253;28;20031;-52
2022/03/09 03:39:17;;;;;;;5.57;3.80;;;17.90;32.00;;;;;;5075708;28;20530;-55
2022/03/09 03:41:42;;;;;;;4.75;3.83;;;17.90;32.00;;;;;;5074753;28;20153;-57
2022/03/09 03:44:08;;;;;;;5.38;3.70;;;17.90;32.00;;;;;;5092977;28;20474;-54
2022/03/09 03:46:34;;;;;;;5.00;3.90;;;17.90;32.00;;;;;;5092882;28;20028;-55
2022/03/09 03:49:00;;;;;;;4.70;3.97;;;17.90;32.00;;;;;;5093293;28;20019;-54
2022/03/09 03:51:26;;;;;;;4.20;3.60;;;17.90;32.00;;;;;;5092831;28;20020;-55
2022/03/09 03:53:53;;;;;;;7.47;3.63;;;17.90;32.10;;;;;;5092729;28;20475;-54
2022/03/09 03:56:19;;;;;;;4.55;4.03;;;17.90;32.10;;;;;;5093435;28;20020;-54
2022/03/09 03:58:45;;;;;;;6.40;3.88;;;17.90;32.10;;;;;;5093915;28;20020;-55
2022/03/09 04:01:12;;;;;;;6.05;3.70;;;17.90;32.10;;;;;;5093466;28;20027;-53
2022/03/09 04:03:38;;;;;;;4.60;3.45;;;17.90;32.10;;;;;;5093599;28;20075;-55
2022/03/09 04:06:05;;;;;;;9.48;3.65;;;17.90;32.20;;;;;;5093056;28;20032;-55
2022/03/09 04:08:30;;;;;;;4.57;3.72;;;17.80;32.10;;;;;;5057877;28;20020;-55
2022/03/09 04:10:56;;;;;;;4.85;3.70;;;17.80;32.10;;;;;;5093629;28;20021;-56
2022/03/09 04:13:22;;;;;;;5.03;3.88;;;17.80;32.10;;;;;;5094889;28;20024;-56
2022/03/09 04:15:48;;;;;;;4.97;3.47;;;17.80;32.10;;;;;;5076813;28;20024;-56
2022/03/09 04:18:14;;;;;;;4.70;3.97;;;17.80;32.10;;;;;;5094496;28;20444;-54
2022/03/09 04:20:42;;;;;;;4.25;3.72;;;17.80;32.20;;;;;;5095092;28;20475;-55
2022/03/09 04:23:09;;;;;;;4.47;3.72;;;17.80;32.20;;;;;;5094443;28;20040;-53
2022/03/09 04:25:36;;;;;;;4.43;3.55;;;17.80;32.20;;;;;;5094596;28;20042;-55
2022/03/09 04:28:02;;;;;;;5.68;3.95;;;17.90;32.20;;;;;;5096763;28;20012;-54
2022/03/09 04:30:28;;;;;;;6.15;3.58;;;17.80;32.20;;;;;;5096900;28;20012;-54
2022/03/09 04:32:54;;;;;;;7.53;3.78;;;17.80;32.20;;;;;;5078541;28;20351;-55
2022/03/09 04:35:19;;;;;;;4.47;4.00;;;17.80;32.20;;;;;;5078433;28;20075;-55
2022/03/09 04:37:45;;;;;;;4.38;3.40;;;17.80;32.20;;;;;;5096596;28;20443;-54
2022/03/09 04:40:12;;;;;;;5.18;4.00;;;17.80;32.20;;;;;;5096316;28;20088;-54
2022/03/09 04:42:38;;;;;;;5.07;3.60;;;17.80;32.20;;;;;;5096823;28;20095;-55
2022/03/09 04:45:04;;;;;;;4.50;3.42;;;17.70;32.20;;;;;;5096421;28;20028;-52
2022/03/09 04:47:30;;;;;;;3.97;3.58;;;17.80;32.20;;;;;;5096526;28;20028;-54
2022/03/09 04:49:56;;;;;;;3.95;3.55;;;17.80;32.20;;;;;;5096498;28;20134;-56
2022/03/09 04:52:22;;;;;;;4.13;3.60;;;17.80;32.20;;;;;;5061713;28;20042;-54
2022/03/09 04:54:48;;;;;;;4.10;3.67;;;17.90;32.10;;;;;;5096009;28;20016;-55
2022/03/09 04:57:14;;;;;;;6.30;3.90;;;18.00;31.90;;;;;;5096483;28;20054;-56
2022/03/09 04:59:41;;;;;;;4.00;3.22;;;18.10;31.80;;;;;;5096367;28;20020;-55
2022/03/09 05:02:06;;;;;;;4.60;3.42;;;18.10;31.70;;;;;;5061585;28;20050;-54
2022/03/09 05:04:32;;;;;;;4.38;3.25;;;18.20;31.60;;;;;;5095861;28;20063;-56
2022/03/09 05:06:58;;;;;;;4.30;3.70;;;18.20;31.60;;;;;;5077659;28;20078;-53
2022/03/09 05:09:24;;;;;;;4.68;3.60;;;18.20;31.50;;;;;;5096496;28;20024;-55
2022/03/09 05:11:49;;;;;;;4.30;3.55;;;18.20;31.40;;;;;;5077683;28;20020;-55
2022/03/09 05:14:15;;;;;;;5.57;3.42;;;18.30;31.40;;;;;;5095559;28;20475;-54
2022/03/09 05:16:42;;;;;;;5.30;3.75;;;18.30;31.30;;;;;;5077617;28;20036;-55
2022/03/09 05:19:07;;;;;;;4.00;3.17;;;18.40;31.30;;;;;;5077682;28;20040;-55
2022/03/09 05:21:34;;;;;;;3.80;3.30;;;18.40;31.20;;;;;;5078136;28;20093;-56
2022/03/09 05:24:00;;;;;;;3.78;3.03;;;18.40;31.20;;;;;;5078270;28;20058;-56
2022/03/09 05:26:27;;;;;;;3.58;3.20;;;18.40;31.30;;;;;;5097266;28;20554;-55
2022/03/09 05:28:53;;;;;;;4.47;3.50;;;18.40;31.20;;;;;;5097236;28;20051;-57
2022/03/09 05:31:19;;;;;;;6.22;3.58;;;18.40;31.10;;;;;;5077898;28;20069;-54
2022/03/09 05:33:45;;;;;;;5.00;3.67;;;18.60;31.10;;;;;;5096050;28;20012;-56
2022/03/09 05:36:11;;;;;;;4.10;3.40;;;18.60;31.10;;;;;;5044558;28;20024;-56
2022/03/09 05:38:38;;;;;;;5.43;3.63;;;18.50;31.00;;;;;;5077373;28;20028;-55
2022/03/09 05:41:04;;;;;;;3.42;3.03;;;18.60;31.10;;;;;;5096706;28;20028;-54
2022/03/09 05:43:30;;;;;;;4.25;3.50;;;18.60;31.00;;;;;;5095561;28;20509;-57
2022/03/09 05:45:55;;;;;;;5.07;2.95;;;18.70;31.00;;;;;;5095535;28;20024;-55
2022/03/09 05:48:21;;;;;;;4.43;3.42;;;18.70;30.90;;;;;;5079180;28;20489;-55
2022/03/09 05:50:48;;;;;;;4.03;3.40;;;18.70;30.80;;;;;;5079789;28;20020;-56
2022/03/09 05:53:14;;;;;;;4.20;3.50;;;18.70;30.80;;;;;;5097306;28;20070;-55
2022/03/09 05:55:40;;;;;;;4.47;3.47;;;18.70;30.80;;;;;;5095670;28;20020;-55
2022/03/09 05:58:06;;;;;;;3.33;2.92;;;18.80;30.80;;;;;;5076540;28;20014;-54
2022/03/09 06:00:31;;;;;;;3.72;3.20;;;18.90;30.80;;;;;;5060078;28;20024;-54
2022/03/09 06:02:58;;;;;;;3.65;3.00;;;18.90;30.70;;;;;;5076609;28;20503;-54
2022/03/09 06:05:23;;;;;;;4.88;3.50;;;18.90;30.60;;;;;;5077464;28;20048;-54
2022/03/09 06:07:49;;;;;;;3.80;3.10;;;19.00;30.60;;;;;;5095301;28;20479;-54
2022/03/09 06:10:16;;;;;;;3.85;2.78;;;19.00;30.60;;;;;;5095588;28;20016;-55
2022/03/09 06:12:42;;;;;;;3.40;3.10;;;19.00;30.50;;;;;;5077785;28;20031;-57
2022/03/09 06:15:08;;;;;;;4.57;3.10;;;19.00;30.40;;;;;;5044247;28;20016;-54
2022/03/09 06:17:43;;;;;;;4.20;3.13;;;19.10;30.40;;;;;;5095580;28;20087;-56
2022/03/09 06:20:11;;;;;;;3.30;3.00;;;19.10;30.40;;;;;;5095544;28;20036;-56
2022/03/09 06:22:38;;;;;;;4.60;3.22;;;19.20;30.40;;;;;;5095606;28;20055;-55
2022/03/09 06:25:04;;;;;;;4.80;3.47;;;19.20;30.30;;;;;;5095904;28;20047;-57
2022/03/09 06:27:40;;;;;;;4.18;2.95;;;19.20;30.20;;;;;;5077229;28;20127;-57
2022/03/09 06:30:06;;;;;;;4.13;3.22;;;19.30;30.20;;;;;;5095369;28;20040;-54
2022/03/09 06:32:33;;;;;;;6.18;3.28;;;19.40;30.10;;;;;;5095004;28;20024;-56
2022/03/09 06:34:59;;;;;;;5.07;3.10;;;19.40;30.00;;;;;;5077793;28;20020;-55
2022/03/09 06:37:24;;;;;;;3.90;3.08;;;19.50;30.10;;;;;;5080132;28;20043;-55
2022/03/09 06:39:50;;;;;;;4.72;3.17;;;19.50;30.00;;;;;;5097117;28;20020;-57
2022/03/09 06:42:17;;;;;;;3.90;2.95;;;19.50;30.00;;;;;;5095618;28;20069;-54
2022/03/09 06:44:43;;;;;;;3.58;2.85;;;19.50;30.00;;;;;;5094664;28;20027;-56
2022/03/09 06:47:09;;;;;;;4.22;3.28;;;19.60;30.00;;;;;;5076524;28;20112;-54
2022/03/09 06:49:35;;;;;;;3.40;2.95;;;19.60;30.00;;;;;;5075663;28;20016;-56
2022/03/09 06:52:01;;;;;;;6.68;3.38;;;19.70;29.90;;;;;;5077062;28;20035;-55
2022/03/09 06:54:27;;;;;;;4.25;3.00;;;19.70;29.90;;;;;;5076881;28;20008;-54
2022/03/09 06:56:54;;;;;;;3.72;3.03;;;19.70;29.80;;;;;;5094670;28;20102;-56
2022/03/09 06:59:19;;;;;;;4.40;3.10;;;19.80;29.80;;;;;;5094671;28;20531;-56
2022/03/09 07:01:46;;;;;;;3.72;3.20;;;19.80;29.80;;;;;;5095193;28;20020;-54
2022/03/09 07:04:12;;;;;;;5.70;3.30;;;19.80;29.70;;;;;;5076844;28;20008;-58
2022/03/09 07:06:38;;;;;;;4.25;3.47;;;19.90;29.80;;;;;;5076330;28;20398;-53
2022/03/09 07:09:04;;;;;;;3.88;2.83;;;19.90;29.80;;;;;;5058809;28;20043;-55
2022/03/09 07:11:31;;;;;;;4.35;3.17;;;19.90;29.70;;;;;;5093800;28;20047;-54
2022/03/09 07:13:57;;;;;;;5.32;3.10;;;19.90;29.70;;;;;;5093876;28;20034;-56
2022/03/09 07:16:23;;;;;;;3.30;3.00;;;20.00;29.70;;;;;;5093415;28;20016;-55
2022/03/09 07:18:49;;;;;;;3.03;2.72;;;20.00;29.60;;;;;;5092852;28;20032;-56
2022/03/09 07:21:17;;;;;;;6.10;2.90;;;20.00;29.60;;;;;;5072831;28;20016;-53
2022/03/09 07:23:44;;;;;;;11.55;4.20;;;20.00;29.60;;;;;;5057376;28;20028;-58
2022/03/09 07:26:10;;;;;;;19.33;6.18;;;20.10;29.80;;;;;;5056273;28;20051;-57
2022/03/09 07:28:36;;;;;;;15.10;6.70;;;20.20;29.90;;;;;;5091436;28;20185;-58
2022/03/09 07:31:02;;;;;;;14.45;8.23;;;20.30;29.60;;;;;;5039950;28;20017;-55
2022/03/09 07:33:28;;;;;;;21.85;9.98;;;20.40;29.10;;;;;;5092072;28;20434;-57
2022/03/09 07:35:56;;;;;;;11.52;8.55;;;20.60;28.60;;;;;;5056336;28;20428;-56
2022/03/09 07:38:23;;;;;;;15.02;8.77;;;20.70;28.40;;;;;;5091636;28;20023;-55
2022/03/09 07:40:49;;;;;;;17.50;10.00;;;20.80;28.00;;;;;;5073419;28;20132;-56
2022/03/09 07:43:18;;;;;;;14.73;9.82;;;20.80;28.50;;;;;;5091520;28;20012;-57
2022/03/09 07:45:44;;;;;;;16.33;9.88;;;20.90;27.70;;;;;;5091389;28;20116;-56
2022/03/09 07:48:10;;;;;;;18.40;9.50;;;20.90;27.90;;;;;;5091394;28;20592;-56
2022/03/09 07:50:36;;;;;;;16.77;10.18;;;20.90;27.60;;;;;;5091519;28;20463;-58
2022/03/09 07:53:03;;;;;;;22.80;11.52;;;21.00;27.40;;;;;;5090924;28;20020;-56
2022/03/09 07:55:29;;;;;;;20.00;10.65;;;21.00;27.00;;;;;;5073423;28;20043;-56
2022/03/09 07:57:54;;;;;;;22.00;10.65;;;21.10;27.00;;;;;;5073360;28;20059;-58
2022/03/09 08:00:21;;;;;;;19.95;11.25;;;21.10;26.90;;;;;;5091335;28;20078;-57
2022/03/09 08:02:47;;;;;;;19.88;11.25;;;21.10;27.00;;;;;;5077133;28;20016;-57
2022/03/09 08:05:13;;;;;;;21.52;11.98;;;21.10;26.80;;;;;;5076530;28;20142;-56
2022/03/09 08:07:39;;;;;;;17.55;11.52;;;21.10;26.60;;;;;;5076347;28;20035;-58
2022/03/09 08:10:05;;;;;;;16.73;11.30;;;21.20;26.60;;;;;;5095058;28;20012;-57
2022/03/09 08:12:34;;;;;;;23.52;12.02;;;21.20;26.60;;;;;;5095060;28;20099;-54
2022/03/09 08:15:00;;;;;;;23.30;11.52;;;21.10;26.50;;;;;;5095325;28;20064;-57
2022/03/09 08:17:27;;;;;;;27.05;11.63;;;21.00;26.70;;;;;;5094846;28;20470;-57
2022/03/09 08:19:53;;;;;;;25.80;12.02;;;20.60;26.80;;;;;;5095235;28;20092;-58
2022/03/09 08:22:21;;;;;;;20.58;13.32;;;20.50;26.70;;;;;;5095451;28;20016;-55
2022/03/09 08:24:47;;;;;;;18.35;13.13;;;20.40;26.50;;;;;;5094214;22;20053;-70
2022/03/09 08:27:12;;;;;;;19.52;13.25;;;20.20;26.20;;;;;;5053980;28;20402;-70
2022/03/09 08:29:39;;;;;;;22.02;13.23;;;20.20;26.00;;;;;;5053916;28;20120;-70
2022/03/09 08:32:07;;;;;;;17.23;13.30;;;20.00;26.10;;;;;;5038073;28;20036;-69
2022/03/09 08:34:34;;;;;;;22.70;13.32;;;20.00;26.00;;;;;;5054461;28;20156;-70
2022/03/09 08:36:59;;;;;;;19.23;13.95;;;20.00;26.00;;;;;;5053983;28;20048;-74
2022/03/09 08:39:26;;;;;;;25.80;14.55;;;19.90;25.90;;;;;;5037447;28;20032;-72
2022/03/09 08:41:52;;;;;;;18.77;13.57;;;19.80;26.00;;;;;;5037813;28;20052;-71
2022/03/09 08:44:21;;;;;;;21.05;13.77;;;19.70;26.00;;;;;;5053932;28;20032;-72
2022/03/09 08:46:47;;;;;;;19.48;13.93;;;19.70;26.00;;;;;;5038326;28;20078;-73
2022/03/09 08:49:14;;;;;;;16.95;13.30;;;19.70;26.00;;;;;;5054409;28;20036;-72
2022/03/09 08:51:40;;;;;;;21.42;14.18;;;19.70;25.90;;;;;;5054310;28;20463;-71
2022/03/09 08:54:19;;;;;;;23.20;14.38;;;19.80;25.90;;;;;;5054205;28;20032;-72
2022/03/09 08:56:45;;;;;;;16.73;13.38;;;19.80;26.00;;;;;;5054251;28;20025;-72
2022/03/09 08:59:11;;;;;;;21.20;14.27;;;19.80;26.00;;;;;;5054206;28;20475;-74
2022/03/09 09:01:37;;;;;;;22.20;13.85;;;19.80;26.10;;;;;;5038755;28;20025;-73
2022/03/09 09:04:06;;;;;;;23.83;14.38;;;19.70;26.20;;;;;;5052768;28;20032;-73
2022/03/09 09:06:43;;;;;;;23.88;13.98;;;19.70;26.00;;;;;;5053144;28;20425;-72
2022/03/09 09:09:09;;;;;;;23.40;13.82;;;19.80;26.10;;;;;;5033479;28;20036;-72
2022/03/09 09:11:35;;;;;;;24.38;13.10;;;19.70;26.20;;;;;;5052459;28;20146;-71
2022/03/09 09:14:02;;;;;;;22.45;13.05;;;19.70;26.20;;;;;;5051770;28;20021;-73
2022/03/09 09:16:31;;;;;;;22.80;12.65;;;19.70;26.20;;;;;;5053593;28;20104;-70
2022/03/09 09:18:57;;;;;;;23.23;12.80;;;19.80;26.20;;;;;;5053966;28;20021;-69
2022/03/09 09:21:25;;;;;;;29.30;13.25;;;19.80;26.60;;;;;;5053680;28;20092;-70
2022/03/09 09:23:51;;;;;;;20.27;12.68;;;20.00;28.50;;;;;;5053457;28;20024;-71
2022/03/09 09:26:20;;;;;;;21.70;12.85;;;20.20;29.20;;;;;;5052872;28;20136;-69
2022/03/09 09:28:46;;;;;;;32.47;12.63;;;20.30;29.50;;;;;;5068323;22;20053;-54
2022/03/09 09:31:14;;;;;;;21.88;12.73;;;20.40;30.40;;;;;;5053378;28;20071;-53
2022/03/09 09:33:42;;;;;;;19.85;11.98;;;20.50;30.40;;;;;;5053260;28;20099;-53
2022/03/09 09:36:08;;;;;;;23.98;12.55;;;20.60;30.90;;;;;;5054632;28;20046;-56
2022/03/09 09:38:34;;;;;;;19.15;11.43;;;20.70;31.40;;;;;;5053178;28;20104;-54
2022/03/09 09:40:59;;;;;;;16.70;11.05;;;20.80;32.40;;;;;;5054226;28;20013;-54
2022/03/09 09:43:25;;;;;;;24.40;11.35;;;20.90;32.70;;;;;;5054487;28;20534;-53
2022/03/09 09:45:52;;;;;;;22.73;11.18;;;21.10;32.70;;;;;;5053971;28;20032;-56
2022/03/09 09:48:19;;;;;;;16.95;10.77;;;21.10;33.10;;;;;;5054931;28;20017;-55
2022/03/09 09:50:45;;;;;;;18.70;11.43;;;21.20;33.30;;;;;;5054773;28;20013;-55
2022/03/09 09:53:12;;;;;;;20.85;10.80;;;21.20;34.00;;;;;;5054424;28;20009;-57
2022/03/09 09:55:39;;;;;;;17.35;10.60;;;21.40;34.30;;;;;;5054393;28;20013;-57
2022/03/09 09:58:05;;;;;;;17.30;10.32;;;21.40;34.10;;;;;;5053845;28;20086;-56
2022/03/09 10:00:31;;;;;;;18.08;10.32;;;21.60;34.30;;;;;;5053834;28;20047;-56
2022/03/09 10:02:58;;;;;;;23.30;11.10;;;21.80;34.40;;;;;;5054014;28;20108;-56
2022/03/09 10:05:24;;;;;;;20.25;10.60;;;21.80;34.00;;;;;;5053233;28;20017;-56
2022/03/09 10:08:06;;;;;;;47.22;13.55;;;21.90;34.60;;;;;;5052262;28;20030;-57
2022/03/09 10:10:37;;;;;;;26.23;12.05;;;21.80;33.00;;;;;;5053247;28;20335;-56
2022/03/09 10:13:10;;;;;;;26.00;11.63;;;21.60;32.90;;;;;;5052129;28;20009;-57
2022/03/09 10:15:36;;;;;;;18.10;10.73;;;21.30;33.10;;;;;;5053628;28;20016;-56
2022/03/09 10:18:17;;;;;;;16.00;9.77;;;21.40;33.00;;;;;;5035449;28;20047;-58
2022/03/09 10:20:43;;;;;;;19.45;10.40;;;21.40;32.80;;;;;;5053445;28;20033;-57
2022/03/09 10:23:09;;;;;;;19.23;9.80;;;21.20;33.00;;;;;;5053713;28;20051;-56
2022/03/09 10:25:35;;;;;;;21.88;9.75;;;21.30;33.20;;;;;;5052164;28;20025;-57
2022/03/09 10:28:06;;;;;;;18.33;10.30;;;21.40;32.80;;;;;;5052786;28;20052;-57
2022/03/09 10:30:36;;;;;;;19.42;9.30;;;21.40;32.40;;;;;;5052400;28;20029;-56
2022/03/09 10:33:14;;;;;;;16.33;9.05;;;21.30;32.80;;;;;;5051581;28;20067;-56
2022/03/09 10:35:42;;;;;;;16.38;8.38;;;21.20;32.60;;;;;;5053436;28;20065;-57
2022/03/09 10:38:12;;;;;;;18.25;8.60;;;21.30;32.80;;;;;;5052111;28;20032;-56
2022/03/09 10:40:46;;;;;;;15.15;7.82;;;21.30;32.40;;;;;;5052210;28;20029;-56
2022/03/09 10:43:12;;;;;;;11.88;7.45;;;21.20;32.50;;;;;;5053011;28;20013;-55
2022/03/09 10:46:11;;;;;;;16.33;8.10;;;21.20;32.60;;;;;;5053408;28;20375;-56
2022/03/09 10:48:54;;;;;;;13.98;7.45;;;21.10;32.10;;;;;;5048123;28;20041;-55
2022/03/09 10:51:37;;;;;;;14.77;7.68;;;21.10;32.50;;;;;;5053000;28;20123;-56
2022/03/09 10:54:16;;;;;;;13.20;7.53;;;21.10;32.60;;;;;;5051106;28;20429;-56
2022/03/09 10:56:43;;;;;;;12.82;7.47;;;21.20;32.40;;;;;;5052712;28;20051;-57
2022/03/09 10:59:20;;;;;;;16.25;7.18;;;21.20;32.10;;;;;;5051767;28;20017;-57
2022/03/09 11:02:08;;;;;;;10.73;6.70;;;21.20;32.40;;;;;;5053328;28;20489;-57
2022/03/09 11:04:35;;;;;;;16.45;8.48;;;21.20;32.30;;;;;;5053223;28;20027;-57
2022/03/09 11:07:02;;;;;;;14.93;7.07;;;21.20;31.70;;;;;;5053392;28;20029;-57
2022/03/09 11:09:28;;;;;;;19.23;7.75;;;21.10;32.20;;;;;;5052240;28;20080;-57
2022/03/09 11:11:55;;;;;;;15.50;7.13;;;21.10;32.00;;;;;;5052118;28;20013;-57
2022/03/09 11:14:21;;;;;;;14.88;7.65;;;21.10;32.10;;;;;;5053376;28;20013;-56
2022/03/09 11:16:47;;;;;;;11.98;6.70;;;21.10;31.80;;;;;;5052049;28;20037;-57
2022/03/09 11:19:14;;;;;;;11.07;5.88;;;21.10;32.20;;;;;;5052078;28;20042;-56
2022/03/09 11:21:40;;;;;;;9.32;5.95;;;21.10;32.30;;;;;;5053872;28;20100;-57
2022/03/09 11:24:10;;;;;;;10.60;5.57;;;21.10;32.30;;;;;;5055676;28;20028;-57
2022/03/09 11:26:44;;;;;;;16.00;5.70;;;21.00;32.40;;;;;;5053093;28;20028;-57
2022/03/09 11:29:12;;;;;;;13.18;7.15;;;21.00;32.30;;;;;;5052259;28;20086;-58
2022/03/09 11:31:51;;;;;;;9.50;5.40;;;21.00;32.10;;;;;;5053269;28;20021;-57
2022/03/09 11:34:38;;;;;;;9.27;6.22;;;20.80;32.40;;;;;;5053360;28;20500;-58
2022/03/09 11:37:10;;;;;;;11.13;6.88;;;20.80;32.20;;;;;;5051534;28;20040;-58
2022/03/09 11:39:37;;;;;;;9.70;5.55;;;20.70;32.30;;;;;;5053246;28;20078;-57
2022/03/09 11:42:21;;;;;;;9.07;5.80;;;20.70;32.50;;;;;;5053219;28;20094;-57
2022/03/09 11:45:13;;;;;;;14.05;6.30;;;20.80;32.50;;;;;;5053454;28;20066;-58
2022/03/09 11:47:59;;;;;;;11.43;5.60;;;20.70;32.00;;;;;;5052868;28;20475;-58
2022/03/09 11:50:26;;;;;;;9.45;6.43;;;20.70;32.50;;;;;;5053389;28;20011;-58
2022/03/09 11:53:02;;;;;;;10.30;6.10;;;20.70;32.30;;;;;;5052667;28;20037;-58
2022/03/09 11:55:27;;;;;;;11.35;5.70;;;20.50;32.50;;;;;;5052954;28;20471;-58
2022/03/09 11:57:56;;;;;;;7.80;5.78;;;20.60;32.60;;;;;;5053211;28;20032;-58
2022/03/09 12:00:22;;;;;;;6.80;5.70;;;20.50;32.40;;;;;;5053150;28;20021;-58
2022/03/09 12:02:51;;;;;;;9.93;5.90;;;20.50;32.50;;;;;;5053616;28;20013;-58
2022/03/09 12:05:26;;;;;;;10.68;5.80;;;20.50;32.50;;;;;;5053140;28;20119;-58
2022/03/09 12:08:01;;;;;;;10.00;5.40;;;20.50;32.60;;;;;;5052620;28;20025;-59
2022/03/09 12:10:53;;;;;;;8.95;5.93;;;20.50;32.30;;;;;;5053246;28;20017;-58
2022/03/09 12:13:33;;;;;;;8.13;5.40;;;20.40;32.40;;;;;;5052918;28;20144;-57
2022/03/09 12:16:18;;;;;;;8.00;5.60;;;20.40;33.40;;;;;;5052968;28;20044;-58
2022/03/09 12:18:56;;;;;;;10.68;6.57;;;20.40;32.80;;;;;;5052538;28;20370;-58
2022/03/09 12:21:28;;;;;;;8.98;6.00;;;20.30;32.60;;;;;;5052533;28;20013;-58
2022/03/09 12:24:05;;;;;;;10.45;6.43;;;20.30;32.70;;;;;;5052853;28;20017;-58
2022/03/09 12:26:41;;;;;;;7.03;5.13;;;20.20;32.60;;;;;;5052622;28;20037;-57
2022/03/09 12:29:21;;;;;;;10.18;4.95;;;20.30;32.90;;;;;;5052895;28;20037;-58
2022/03/09 12:31:59;;;;;;;10.43;5.35;;;20.20;32.90;;;;;;5055623;28;20013;-58
2022/03/09 12:34:26;;;;;;;9.75;5.22;;;20.20;32.90;;;;;;5055153;28;20021;-58
2022/03/09 12:36:52;;;;;;;7.03;5.95;;;20.20;32.80;;;;;;5055664;28;20037;-58
2022/03/09 12:39:18;;;;;;;9.15;5.93;;;20.20;32.80;;;;;;5054864;28;20079;-59
2022/03/09 12:41:44;;;;;;;7.72;5.35;;;20.10;32.90;;;;;;5053292;28;20021;-58
2022/03/09 12:44:11;;;;;;;7.25;5.05;;;20.20;32.90;;;;;;5052669;28;20088;-58
2022/03/09 12:46:40;;;;;;;8.48;6.10;;;20.10;32.90;;;;;;5052864;28;20045;-58